Time;durP1;ratioP1;P1;durP2;ratioP2;P2;SDS_P1;SDS_P2;PMS_P1;PMS_P2;Temp;Humidity;BMP_temperature;BMP_pressure;BME280_temperature;BME280_humidity;BME280_pressure;Samples;Min_cycle;Max_cycle;Signal;HPM_P1;HPM_P2
2021/11/13 00:01:55;;;;;;;;;;;20.80;39.40;;;;;;482287;247;1340;-45
2021/11/13 00:03:57;;;;;;;;;;;20.80;39.40;;;;;;480379;248;1126;-45
2021/11/13 00:05:58;;;;;;;;;;;20.70;39.40;;;;;;482109;247;1274;-46
2021/11/13 00:07:59;;;;;;;;;;;20.70;39.50;;;;;;480501;248;1062;-45
2021/11/13 00:10:01;;;;;;;;;;;20.70;39.50;;;;;;482326;247;1163;-46
2021/11/13 00:12:02;;;;;;;;;;;20.80;39.50;;;;;;480046;248;1254;-45
2021/11/13 00:14:03;;;;;;;;;;;20.70;39.50;;;;;;482149;247;1079;-45
2021/11/13 00:16:05;;;;;;;;;;;20.80;39.60;;;;;;480100;248;2198;-45
2021/11/13 00:18:06;;;;;;;;;;;20.70;39.50;;;;;;482390;247;1238;-45
2021/11/13 00:20:07;;;;;;;;;;;20.80;39.50;;;;;;480617;248;1159;-46
2021/11/13 00:22:09;;;;;;;;;;;20.80;39.60;;;;;;481963;247;1213;-46
2021/11/13 00:24:10;;;;;;;;;;;20.70;39.60;;;;;;480574;248;1066;-45
2021/11/13 00:26:11;;;;;;;;;;;20.80;39.60;;;;;;481909;247;1297;-45
2021/11/13 00:28:12;;;;;;;;;;;20.70;39.60;;;;;;482128;247;1088;-46
2021/11/13 00:30:14;;;;;;;;;;;20.80;39.60;;;;;;480176;248;1061;-45
2021/11/13 00:32:15;;;;;;;;;;;20.70;39.50;;;;;;481897;247;1568;-45
2021/11/13 00:34:17;;;;;;;;;;;20.70;39.50;;;;;;480185;248;968;-45
2021/11/13 00:36:18;;;;;;;;;;;20.80;39.50;;;;;;481908;247;2130;-45
2021/11/13 00:38:20;;;;;;;;;;;20.70;39.50;;;;;;480159;248;1109;-45
2021/11/13 00:40:21;;;;;;;;;;;20.70;39.60;;;;;;482401;247;1088;-45
2021/11/13 00:42:23;;;;;;;;;;;20.70;39.50;;;;;;480115;248;1335;-45
2021/11/13 00:44:24;;;;;;;;;;;20.70;39.60;;;;;;482326;247;1043;-46
2021/11/13 00:46:25;;;;;;;;;;;20.80;39.60;;;;;;480105;246;1314;-45
2021/11/13 00:48:27;;;;;;;;;;;20.80;39.60;;;;;;482111;247;1133;-45
2021/11/13 00:50:28;;;;;;;;;;;20.80;39.60;;;;;;480551;248;1092;-46
2021/11/13 00:52:29;;;;;;;;;;;20.70;39.60;;;;;;482108;247;1341;-45
2021/11/13 00:54:33;;;;;;;;;;;20.80;39.60;;;;;;480560;248;1061;-45
2021/11/13 00:56:32;;;;;;;;;;;20.80;39.60;;;;;;481970;247;2459;-45
2021/11/13 00:58:34;;;;;;;;;;;20.70;39.50;;;;;;480545;248;1086;-45
2021/11/13 01:00:35;;;;;;;;;;;20.80;39.60;;;;;;481889;247;2167;-46
2021/11/13 01:02:36;;;;;;;;;;;20.80;39.50;;;;;;480090;248;1127;-45
2021/11/13 01:04:37;;;;;;;;;;;20.80;39.50;;;;;;481932;247;1181;-45
2021/11/13 01:06:39;;;;;;;;;;;20.70;39.50;;;;;;482318;247;1200;-46
2021/11/13 01:08:40;;;;;;;;;;;20.80;39.50;;;;;;480180;248;1060;-45
2021/11/13 01:10:42;;;;;;;;;;;20.80;39.50;;;;;;482316;247;1072;-46
2021/11/13 01:12:43;;;;;;;;;;;20.70;39.60;;;;;;480202;248;1212;-45
2021/11/13 01:14:44;;;;;;;;;;;20.80;39.60;;;;;;482280;247;1001;-45
2021/11/13 01:16:46;;;;;;;;;;;20.80;39.60;;;;;;480099;248;2139;-45
2021/11/13 01:18:47;;;;;;;;;;;20.80;39.60;;;;;;482150;247;1179;-46
2021/11/13 01:20:48;;;;;;;;;;;20.70;39.60;;;;;;482183;243;1086;-46
2021/11/13 01:22:50;;;;;;;;;;;20.80;39.60;;;;;;480110;248;1223;-45
2021/11/13 01:24:51;;;;;;;;;;;20.80;39.60;;;;;;482319;247;1000;-45
2021/11/13 01:26:52;;;;;;;;;;;20.70;39.60;;;;;;480210;248;1286;-45
2021/11/13 01:28:54;;;;;;;;;;;20.70;39.60;;;;;;482403;247;1095;-45
2021/11/13 01:30:55;;;;;;;;;;;20.80;39.60;;;;;;480329;248;1089;-45
2021/11/13 01:32:56;;;;;;;;;;;20.70;39.60;;;;;;482425;247;1118;-45
2021/11/13 01:34:57;;;;;;;;;;;20.80;39.60;;;;;;480678;248;1043;-45
2021/11/13 01:36:59;;;;;;;;;;;20.80;39.60;;;;;;482373;247;2134;-45
2021/11/13 01:39:00;;;;;;;;;;;20.80;39.60;;;;;;480413;248;1053;-46
2021/11/13 01:41:01;;;;;;;;;;;20.80;39.50;;;;;;481996;247;1134;-45
2021/11/13 01:43:03;;;;;;;;;;;20.80;39.60;;;;;;480288;248;1205;-45
2021/11/13 01:45:04;;;;;;;;;;;20.70;39.50;;;;;;482440;247;1070;-45
2021/11/13 01:47:05;;;;;;;;;;;20.70;39.60;;;;;;480146;248;1336;-45
2021/11/13 01:49:07;;;;;;;;;;;20.70;39.60;;;;;;482019;247;1030;-45
2021/11/13 01:51:08;;;;;;;;;;;20.80;39.60;;;;;;480197;248;1138;-45
2021/11/13 01:53:09;;;;;;;;;;;20.80;39.70;;;;;;482351;247;1083;-45
2021/11/13 01:55:11;;;;;;;;;;;20.70;39.60;;;;;;480449;248;1111;-45
2021/11/13 01:57:19;;;;;;;;;;;20.80;39.60;;;;;;482107;247;2188;-46
2021/11/13 01:59:13;;;;;;;;;;;20.80;39.60;;;;;;481980;247;1338;-45
2021/11/13 02:01:15;;;;;;;;;;;20.80;39.50;;;;;;480235;248;1398;-46
2021/11/13 02:03:16;;;;;;;;;;;20.80;39.60;;;;;;481867;247;1311;-45
2021/11/13 02:05:17;;;;;;;;;;;20.80;39.60;;;;;;480575;248;1089;-46
2021/11/13 02:07:19;;;;;;;;;;;20.80;39.60;;;;;;482296;247;1365;-46
2021/11/13 02:09:20;;;;;;;;;;;20.70;39.60;;;;;;481971;247;1182;-45
2021/11/13 02:11:21;;;;;;;;;;;20.70;39.60;;;;;;482315;247;1155;-45
2021/11/13 02:13:23;;;;;;;;;;;20.80;39.70;;;;;;482050;247;1198;-46
2021/11/13 02:15:24;;;;;;;;;;;20.80;39.60;;;;;;480622;248;1110;-46
2021/11/13 02:17:25;;;;;;;;;;;20.80;39.60;;;;;;481865;247;2185;-45
2021/11/13 02:19:27;;;;;;;;;;;20.70;39.60;;;;;;480234;248;1091;-45
2021/11/13 02:21:28;;;;;;;;;;;20.70;39.70;;;;;;482092;247;1153;-45
2021/11/13 02:23:29;;;;;;;;;;;20.70;39.80;;;;;;480173;248;1028;-46
2021/11/13 02:25:31;;;;;;;;;;;20.70;39.80;;;;;;482211;247;1039;-45
2021/11/13 02:27:32;;;;;;;;;;;20.70;39.70;;;;;;480411;248;1316;-45
2021/11/13 02:29:33;;;;;;;;;;;20.70;39.70;;;;;;482328;247;1053;-45
2021/11/13 02:31:35;;;;;;;;;;;20.80;39.70;;;;;;482065;247;1175;-45
2021/11/13 02:33:36;;;;;;;;;;;20.70;39.70;;;;;;480184;248;1279;-45
2021/11/13 02:35:37;;;;;;;;;;;20.70;39.70;;;;;;481942;247;1438;-45
2021/11/13 02:37:39;;;;;;;;;;;20.70;39.70;;;;;;482104;247;2187;-46
2021/11/13 02:39:40;;;;;;;;;;;20.80;39.60;;;;;;480314;248;1093;-46
2021/11/13 02:41:44;;;;;;;;;;;20.80;39.60;;;;;;481921;247;1378;-46
2021/11/13 02:43:44;;;;;;;;;;;20.70;39.70;;;;;;480229;248;1540;-45
2021/11/13 02:45:45;;;;;;;;;;;20.80;39.70;;;;;;482428;247;1046;-45
2021/11/13 02:47:47;;;;;;;;;;;20.80;39.70;;;;;;480240;248;1237;-46
2021/11/13 02:49:49;;;;;;;;;;;20.70;39.70;;;;;;481947;247;1836;-46
2021/11/13 02:51:50;;;;;;;;;;;20.80;39.70;;;;;;480565;246;1146;-45
2021/11/13 02:53:52;;;;;;;;;;;20.80;39.70;;;;;;482015;247;1185;-46
2021/11/13 02:55:52;;;;;;;;;;;20.70;39.70;;;;;;480189;248;2339;-46
2021/11/13 02:57:54;;;;;;;;;;;20.80;39.70;;;;;;482284;247;2197;-45
2021/11/13 02:59:55;;;;;;;;;;;20.80;39.70;;;;;;480261;248;1081;-45
2021/11/13 03:01:57;;;;;;;;;;;20.70;39.70;;;;;;482014;247;1162;-45
2021/11/13 03:03:58;;;;;;;;;;;20.80;39.80;;;;;;480156;248;2401;-44
2021/11/13 03:05:59;;;;;;;;;;;20.80;39.70;;;;;;481994;247;1369;-45
2021/11/13 03:08:00;;;;;;;;;;;20.80;39.70;;;;;;480179;248;1290;-45
2021/11/13 03:10:02;;;;;;;;;;;20.80;39.70;;;;;;482173;247;1072;-46
2021/11/13 03:12:03;;;;;;;;;;;20.80;39.70;;;;;;480340;248;1316;-46
2021/11/13 03:14:04;;;;;;;;;;;20.80;39.60;;;;;;482128;247;1224;-45
2021/11/13 03:16:06;;;;;;;;;;;20.70;39.70;;;;;;480277;248;1698;-45
2021/11/13 03:18:07;;;;;;;;;;;20.80;39.70;;;;;;482363;247;2113;-45
2021/11/13 03:20:08;;;;;;;;;;;20.70;39.70;;;;;;480187;248;1164;-46
2021/11/13 03:22:10;;;;;;;;;;;20.80;39.70;;;;;;481876;247;1208;-45
2021/11/13 03:24:11;;;;;;;;;;;20.80;39.70;;;;;;480150;248;1064;-45
2021/11/13 03:26:13;;;;;;;;;;;20.70;39.70;;;;;;481947;243;1255;-46
2021/11/13 03:28:14;;;;;;;;;;;20.80;39.70;;;;;;480450;248;1293;-45
2021/11/13 03:30:15;;;;;;;;;;;20.70;39.70;;;;;;482047;247;1320;-46
2021/11/13 03:32:17;;;;;;;;;;;20.80;39.70;;;;;;480287;248;1323;-46
2021/11/13 03:34:18;;;;;;;;;;;20.70;39.70;;;;;;481949;247;1556;-45
2021/11/13 03:36:20;;;;;;;;;;;20.70;39.70;;;;;;480568;248;1349;-45
2021/11/13 03:38:21;;;;;;;;;;;20.70;39.70;;;;;;481990;247;2192;-45
2021/11/13 03:40:22;;;;;;;;;;;20.80;39.70;;;;;;480206;248;1029;-46
2021/11/13 03:42:24;;;;;;;;;;;20.70;39.70;;;;;;482063;247;1120;-46
2021/11/13 03:44:25;;;;;;;;;;;20.80;39.70;;;;;;468058;255;1210;-45
2021/11/13 03:46:27;;;;;;;;;;;20.80;39.70;;;;;;467622;255;1055;-45
2021/11/13 03:48:28;;;;;;;;;;;20.80;39.70;;;;;;480236;248;1351;-45
2021/11/13 03:50:29;;;;;;;;;;;20.80;39.70;;;;;;481914;247;1070;-45
2021/11/13 03:52:31;;;;;;;;;;;20.80;39.70;;;;;;480338;248;1334;-46
2021/11/13 03:54:33;;;;;;;;;;;20.70;39.70;;;;;;482238;247;1061;-45
2021/11/13 03:56:33;;;;;;;;;;;20.80;39.80;;;;;;480457;248;1405;-45
2021/11/13 03:58:35;;;;;;;;;;;20.80;39.70;;;;;;482087;247;2106;-45
2021/11/13 04:00:36;;;;;;;;;;;20.70;39.70;;;;;;482066;247;1059;-45
2021/11/13 04:02:37;;;;;;;;;;;20.70;39.80;;;;;;480562;248;1266;-45
2021/11/13 04:04:39;;;;;;;;;;;20.70;39.80;;;;;;482286;247;1062;-46
2021/11/13 04:06:40;;;;;;;;;;;20.80;39.70;;;;;;480127;248;1265;-45
2021/11/13 04:08:41;;;;;;;;;;;20.70;39.70;;;;;;482244;247;1045;-45
2021/11/13 04:10:43;;;;;;;;;;;20.70;39.70;;;;;;480136;248;1244;-45
2021/11/13 04:12:44;;;;;;;;;;;20.70;39.70;;;;;;482040;247;1198;-46
2021/11/13 04:14:46;;;;;;;;;;;20.70;39.80;;;;;;480113;248;1220;-45
2021/11/13 04:16:47;;;;;;;;;;;20.80;39.80;;;;;;481915;247;1226;-45
2021/11/13 04:18:48;;;;;;;;;;;20.70;39.70;;;;;;480651;248;1159;-45
2021/11/13 04:20:50;;;;;;;;;;;20.70;39.80;;;;;;481939;247;1076;-45
2021/11/13 04:22:51;;;;;;;;;;;20.80;39.80;;;;;;480225;248;1124;-45
2021/11/13 04:24:52;;;;;;;;;;;20.70;39.70;;;;;;482260;247;1080;-46
2021/11/13 04:26:54;;;;;;;;;;;20.80;39.80;;;;;;482104;243;1112;-45
2021/11/13 04:28:55;;;;;;;;;;;20.70;39.80;;;;;;480414;248;1288;-45
2021/11/13 04:30:56;;;;;;;;;;;20.70;39.80;;;;;;482058;247;1065;-46
2021/11/13 04:32:58;;;;;;;;;;;20.70;39.80;;;;;;480070;248;1193;-45
2021/11/13 04:35:16;;;;;;;;;;;20.70;39.80;;;;;;482187;247;1037;-45
2021/11/13 04:37:17;;;;;;;;;;;20.70;39.70;;;;;;480093;248;2425;-46
2021/11/13 04:39:17;;;;;;;;;;;20.70;39.80;;;;;;482362;247;1439;-45
2021/11/13 04:41:18;;;;;;;;;;;20.70;39.80;;;;;;480158;248;1105;-45
2021/11/13 04:43:20;;;;;;;;;;;20.70;39.90;;;;;;481952;247;1168;-45
2021/11/13 04:45:21;;;;;;;;;;;20.70;39.80;;;;;;480078;248;1227;-45
2021/11/13 04:47:22;;;;;;;;;;;20.70;39.80;;;;;;481871;247;1328;-45
2021/11/13 04:49:24;;;;;;;;;;;20.70;39.80;;;;;;480167;248;1257;-45
2021/11/13 04:51:25;;;;;;;;;;;20.70;39.80;;;;;;481907;247;1289;-45
2021/11/13 04:53:26;;;;;;;;;;;20.70;39.70;;;;;;481943;247;1221;-46
2021/11/13 04:55:28;;;;;;;;;;;20.70;39.80;;;;;;482089;247;1112;-45
2021/11/13 04:57:29;;;;;;;;;;;20.70;39.80;;;;;;480522;248;2143;-45
2021/11/13 04:59:30;;;;;;;;;;;20.70;39.80;;;;;;482145;247;1183;-45
2021/11/13 05:01:31;;;;;;;;;;;20.70;39.90;;;;;;480552;248;1134;-45
2021/11/13 05:03:33;;;;;;;;;;;20.70;39.90;;;;;;482349;247;1188;-45
2021/11/13 05:05:34;;;;;;;;;;;20.70;39.80;;;;;;480111;248;1187;-45
2021/11/13 05:07:35;;;;;;;;;;;20.70;39.80;;;;;;482123;247;1328;-45
2021/11/13 05:09:37;;;;;;;;;;;20.70;39.90;;;;;;482007;247;1092;-45
2021/11/13 05:11:38;;;;;;;;;;;20.70;39.90;;;;;;481984;247;1258;-45
2021/11/13 05:13:39;;;;;;;;;;;20.70;39.80;;;;;;480175;248;1172;-46
2021/11/13 05:15:41;;;;;;;;;;;20.70;39.90;;;;;;481999;247;1159;-46
2021/11/13 05:17:42;;;;;;;;;;;20.70;39.80;;;;;;481973;247;2201;-45
2021/11/13 05:19:43;;;;;;;;;;;20.70;39.80;;;;;;480399;248;1084;-46
2021/11/13 05:21:45;;;;;;;;;;;20.70;39.90;;;;;;481949;247;1113;-45
2021/11/13 05:23:46;;;;;;;;;;;20.70;39.90;;;;;;481901;247;1074;-46
2021/11/13 05:25:47;;;;;;;;;;;20.70;39.80;;;;;;481867;247;1073;-45
2021/11/13 05:27:49;;;;;;;;;;;20.80;39.80;;;;;;480570;246;1388;-46
2021/11/13 05:29:50;;;;;;;;;;;20.70;39.80;;;;;;482078;247;1311;-45
2021/11/13 05:31:51;;;;;;;;;;;20.70;39.80;;;;;;480406;248;1219;-46
2021/11/13 05:33:52;;;;;;;;;;;20.70;39.80;;;;;;482013;247;1020;-46
2021/11/13 05:35:56;;;;;;;;;;;20.70;39.80;;;;;;481990;247;1157;-46
2021/11/13 05:37:55;;;;;;;;;;;20.70;39.80;;;;;;481861;247;2230;-45
2021/11/13 05:39:56;;;;;;;;;;;20.70;39.80;;;;;;480455;248;1082;-45
2021/11/13 05:41:58;;;;;;;;;;;20.70;39.90;;;;;;481866;247;1240;-45
2021/11/13 05:43:59;;;;;;;;;;;20.70;39.90;;;;;;480451;248;1032;-45
2021/11/13 05:46:01;;;;;;;;;;;20.70;39.90;;;;;;482070;247;1172;-45
2021/11/13 05:48:02;;;;;;;;;;;20.70;39.80;;;;;;480340;248;1332;-45
2021/11/13 05:50:03;;;;;;;;;;;20.70;39.90;;;;;;482359;247;1064;-45
2021/11/13 05:52:04;;;;;;;;;;;20.60;39.90;;;;;;480157;248;1207;-45
2021/11/13 05:54:06;;;;;;;;;;;20.60;39.90;;;;;;481979;247;1099;-45
2021/11/13 05:56:07;;;;;;;;;;;20.70;39.90;;;;;;480286;248;1280;-46
2021/11/13 05:58:08;;;;;;;;;;;20.70;39.90;;;;;;481992;247;2196;-45
2021/11/13 06:00:10;;;;;;;;;;;20.70;39.90;;;;;;480501;248;1485;-46
2021/11/13 06:02:11;;;;;;;;;;;20.70;39.90;;;;;;481998;247;1310;-45
2021/11/13 06:04:12;;;;;;;;;;;20.70;39.90;;;;;;480127;248;1032;-45
2021/11/13 06:06:14;;;;;;;;;;;20.70;39.90;;;;;;482166;247;1306;-46
2021/11/13 06:08:15;;;;;;;;;;;20.70;39.90;;;;;;480200;248;1148;-45
2021/11/13 06:10:16;;;;;;;;;;;20.60;39.90;;;;;;482005;247;1404;-45
2021/11/13 06:12:18;;;;;;;;;;;20.70;39.90;;;;;;480162;248;1227;-46
2021/11/13 06:14:19;;;;;;;;;;;20.70;39.90;;;;;;482002;247;1087;-45
2021/11/13 06:16:20;;;;;;;;;;;20.60;39.90;;;;;;480082;248;1360;-46
2021/11/13 06:18:22;;;;;;;;;;;20.70;39.90;;;;;;481976;247;2197;-46
2021/11/13 06:20:23;;;;;;;;;;;20.70;40.00;;;;;;482188;247;1487;-46
2021/11/13 06:22:24;;;;;;;;;;;20.70;39.90;;;;;;480127;248;1220;-46
2021/11/13 06:24:25;;;;;;;;;;;20.70;39.90;;;;;;481970;247;1034;-46
2021/11/13 06:26:27;;;;;;;;;;;20.70;39.90;;;;;;480476;248;1160;-45
2021/11/13 06:28:28;;;;;;;;;;;20.70;40.00;;;;;;482235;247;1045;-46
2021/11/13 06:30:30;;;;;;;;;;;20.70;39.90;;;;;;482066;247;1268;-45
2021/11/13 06:32:31;;;;;;;;;;;20.70;39.90;;;;;;480600;248;1220;-46
2021/11/13 06:34:32;;;;;;;;;;;20.60;39.90;;;;;;482010;247;1030;-45
2021/11/13 06:36:33;;;;;;;;;;;20.70;39.90;;;;;;480568;248;1268;-46
2021/11/13 06:38:35;;;;;;;;;;;20.70;39.90;;;;;;482343;247;2181;-45
2021/11/13 06:40:36;;;;;;;;;;;20.70;39.80;;;;;;480455;248;1252;-46
2021/11/13 06:42:37;;;;;;;;;;;20.70;39.80;;;;;;482398;247;1164;-45
2021/11/13 06:44:39;;;;;;;;;;;20.70;39.90;;;;;;481975;247;1084;-46
2021/11/13 06:46:40;;;;;;;;;;;20.70;39.90;;;;;;480225;248;1370;-45
2021/11/13 06:48:42;;;;;;;;;;;20.70;39.90;;;;;;481940;247;1140;-46
2021/11/13 06:50:46;;;;;;;;;;;20.70;39.90;;;;;;481932;247;1492;-45
2021/11/13 06:52:44;;;;;;;;;;;20.70;39.90;;;;;;480095;248;2267;-45
2021/11/13 06:54:46;;;;;;;;;;;20.70;39.80;;;;;;482357;247;1099;-46
2021/11/13 06:56:48;;;;;;;;;;;20.70;39.80;;;;;;481852;247;1505;-45
2021/11/13 06:58:48;;;;;;;;;;;20.70;39.90;;;;;;480260;248;2218;-45
2021/11/13 07:00:50;;;;;;;;;;;20.70;39.90;;;;;;482302;243;1269;-46
2021/11/13 07:02:52;;;;;;;;;;;20.70;39.90;;;;;;480122;248;1234;-46
2021/11/13 07:04:53;;;;;;;;;;;20.70;39.90;;;;;;482343;247;2159;-46
2021/11/13 07:06:54;;;;;;;;;;;20.70;39.90;;;;;;480250;246;1229;-46
2021/11/13 07:08:55;;;;;;;;;;;20.70;39.90;;;;;;482081;247;980;-45
2021/11/13 07:10:57;;;;;;;;;;;20.70;39.90;;;;;;480123;248;1172;-46
2021/11/13 07:12:58;;;;;;;;;;;20.70;39.90;;;;;;482121;247;1293;-46
2021/11/13 07:14:59;;;;;;;;;;;20.70;39.90;;;;;;480425;248;1050;-45
2021/11/13 07:17:01;;;;;;;;;;;20.70;39.90;;;;;;481838;247;1218;-45
2021/11/13 07:19:03;;;;;;;;;;;20.70;39.80;;;;;;480285;248;2190;-45
2021/11/13 07:21:03;;;;;;;;;;;20.70;39.90;;;;;;481803;247;2212;-45
2021/11/13 07:23:04;;;;;;;;;;;20.80;39.90;;;;;;482375;247;1053;-45
2021/11/13 07:25:11;;;;;;;;;;;20.70;39.80;;;;;;480579;248;1167;-45
2021/11/13 07:27:08;;;;;;;;;;;20.70;39.90;;;;;;481816;247;2073;-45
2021/11/13 07:29:12;;;;;;;;;;;20.70;39.90;;;;;;480638;248;2297;-45
2021/11/13 07:31:10;;;;;;;;;;;20.70;39.90;;;;;;481756;247;2228;-45
2021/11/13 07:33:12;;;;;;;;;;;20.70;39.90;;;;;;482146;247;1250;-45
2021/11/13 07:35:13;;;;;;;;;;;20.70;39.90;;;;;;480194;248;1000;-45
2021/11/13 07:37:14;;;;;;;;;;;20.70;39.80;;;;;;481901;247;1246;-45
2021/11/13 07:39:16;;;;;;;;;;;20.70;39.90;;;;;;481928;247;2197;-46
2021/11/13 07:41:18;;;;;;;;;;;20.70;39.90;;;;;;482233;247;1152;-45
2021/11/13 07:43:18;;;;;;;;;;;20.70;39.90;;;;;;482067;247;1531;-45
2021/11/13 07:45:20;;;;;;;;;;;20.70;39.90;;;;;;480134;248;1115;-46
2021/11/13 07:47:21;;;;;;;;;;;20.70;39.90;;;;;;481982;247;1351;-45
2021/11/13 07:49:22;;;;;;;;;;;20.70;39.90;;;;;;482453;247;1071;-45
2021/11/13 07:51:24;;;;;;;;;;;20.70;39.90;;;;;;480462;248;1181;-45
2021/11/13 07:53:25;;;;;;;;;;;20.70;39.80;;;;;;481970;247;1024;-46
2021/11/13 07:55:26;;;;;;;;;;;20.70;39.80;;;;;;480178;248;1060;-45
2021/11/13 07:57:28;;;;;;;;;;;20.70;39.90;;;;;;482343;247;1334;-45
2021/11/13 07:59:29;;;;;;;;;;;20.70;39.80;;;;;;482333;247;2205;-45
2021/11/13 08:01:30;;;;;;;;;;;20.70;39.80;;;;;;481856;247;1460;-45
2021/11/13 08:03:32;;;;;;;;;;;20.70;39.90;;;;;;480476;248;1177;-46
2021/11/13 08:05:33;;;;;;;;;;;20.70;39.80;;;;;;481912;247;1282;-45
2021/11/13 08:07:34;;;;;;;;;;;20.70;39.90;;;;;;480561;248;1040;-46
2021/11/13 08:09:36;;;;;;;;;;;20.70;39.90;;;;;;482230;247;1166;-46
2021/11/13 08:11:37;;;;;;;;;;;20.70;39.90;;;;;;482174;247;1108;-46
2021/11/13 08:13:40;;;;;;;;;;;20.70;39.90;;;;;;480433;248;1097;-45
2021/11/13 08:15:40;;;;;;;;;;;20.70;39.90;;;;;;482225;247;1456;-46
2021/11/13 08:17:41;;;;;;;;;;;20.70;39.90;;;;;;480227;248;1263;-45
2021/11/13 08:19:43;;;;;;;;;;;20.70;39.90;;;;;;482252;247;2126;-45
2021/11/13 08:21:44;;;;;;;;;;;20.70;39.90;;;;;;480528;248;1055;-46
2021/11/13 08:23:45;;;;;;;;;;;20.70;39.90;;;;;;481953;247;1060;-45
2021/11/13 08:25:48;;;;;;;;;;;20.70;39.80;;;;;;482094;247;1050;-45
2021/11/13 08:27:48;;;;;;;;;;;20.80;39.90;;;;;;480131;248;2149;-46
2021/11/13 08:29:49;;;;;;;;;;;20.70;39.80;;;;;;482200;247;1083;-45
2021/11/13 08:31:51;;;;;;;;;;;20.70;39.90;;;;;;480095;248;1247;-45
2021/11/13 08:33:52;;;;;;;;;;;20.70;39.80;;;;;;481977;247;1310;-45
2021/11/13 08:35:53;;;;;;;;;;;20.70;39.80;;;;;;480200;248;1050;-46
2021/11/13 08:37:55;;;;;;;;;;;20.70;39.80;;;;;;481964;247;1052;-45
2021/11/13 08:39:56;;;;;;;;;;;20.80;39.90;;;;;;480167;248;2134;-46
2021/11/13 08:41:57;;;;;;;;;;;20.70;39.90;;;;;;482164;247;1023;-46
2021/11/13 08:43:59;;;;;;;;;;;20.70;39.90;;;;;;480145;248;1638;-45
2021/11/13 08:46:00;;;;;;;;;;;20.70;39.90;;;;;;481973;247;1377;-45
2021/11/13 08:48:01;;;;;;;;;;;20.70;39.90;;;;;;480173;248;1218;-45
2021/11/13 08:50:03;;;;;;;;;;;20.70;39.90;;;;;;482346;247;1253;-45
2021/11/13 08:52:04;;;;;;;;;;;20.70;39.90;;;;;;480161;248;1194;-46
2021/11/13 08:54:05;;;;;;;;;;;20.70;40.00;;;;;;481933;247;1325;-45
2021/11/13 08:56:07;;;;;;;;;;;20.70;40.00;;;;;;480195;248;1070;-45
2021/11/13 08:58:08;;;;;;;;;;;20.70;40.00;;;;;;481902;247;1247;-45
2021/11/13 09:00:09;;;;;;;;;;;20.70;40.00;;;;;;480354;248;2111;-45
2021/11/13 09:02:10;;;;;;;;;;;20.70;40.00;;;;;;482291;247;1244;-45
2021/11/13 09:04:12;;;;;;;;;;;20.70;40.00;;;;;;480164;248;1078;-45
2021/11/13 09:06:13;;;;;;;;;;;20.70;39.90;;;;;;481918;247;1151;-45
2021/11/13 09:08:14;;;;;;;;;;;20.70;39.90;;;;;;480167;248;1076;-46
2021/11/13 09:10:16;;;;;;;;;;;20.70;40.00;;;;;;482171;247;1081;-45
2021/11/13 09:12:21;;;;;;;;;;;20.70;39.90;;;;;;480264;248;1199;-46
2021/11/13 09:14:19;;;;;;;;;;;20.70;39.90;;;;;;481891;247;2391;-46
2021/11/13 09:16:20;;;;;;;;;;;20.70;39.90;;;;;;467935;255;1130;-45
2021/11/13 09:18:22;;;;;;;;;;;20.70;40.00;;;;;;467162;255;1609;-46
2021/11/13 09:20:23;;;;;;;;;;;20.70;40.00;;;;;;480139;248;2123;-46
2021/11/13 09:22:24;;;;;;;;;;;20.70;40.00;;;;;;481895;247;1010;-46
2021/11/13 09:24:25;;;;;;;;;;;20.70;40.00;;;;;;481915;247;1089;-46
2021/11/13 09:26:27;;;;;;;;;;;20.70;39.90;;;;;;480302;248;1158;-46
2021/11/13 09:28:28;;;;;;;;;;;20.60;39.90;;;;;;482017;247;1081;-45
2021/11/13 09:30:29;;;;;;;;;;;20.70;40.00;;;;;;480389;246;1217;-45
2021/11/13 09:32:31;;;;;;;;;;;20.70;40.00;;;;;;481951;247;1149;-46
2021/11/13 09:34:32;;;;;;;;;;;20.70;40.00;;;;;;480212;248;1201;-45
2021/11/13 09:36:33;;;;;;;;;;;20.70;40.00;;;;;;482335;247;1442;-45
2021/11/13 09:38:35;;;;;;;;;;;20.70;40.00;;;;;;482122;247;1045;-45
2021/11/13 09:40:36;;;;;;;;;;;20.70;40.00;;;;;;480596;248;2158;-46
2021/11/13 09:42:37;;;;;;;;;;;20.70;40.00;;;;;;482391;247;1324;-45
2021/11/13 09:44:39;;;;;;;;;;;20.70;40.10;;;;;;480270;248;1054;-45
2021/11/13 09:46:41;;;;;;;;;;;20.70;40.00;;;;;;481887;247;1440;-45
2021/11/13 09:48:41;;;;;;;;;;;20.70;40.00;;;;;;482107;247;1355;-45
2021/11/13 09:50:45;;;;;;;;;;;20.70;40.00;;;;;;480092;248;1222;-45
2021/11/13 09:52:44;;;;;;;;;;;20.70;40.00;;;;;;481869;247;1380;-45
2021/11/13 09:54:45;;;;;;;;;;;20.70;40.00;;;;;;480592;248;1161;-46
2021/11/13 09:56:47;;;;;;;;;;;20.70;40.00;;;;;;481867;247;1228;-45
2021/11/13 09:58:48;;;;;;;;;;;20.70;40.10;;;;;;480454;248;2190;-46
2021/11/13 10:00:49;;;;;;;;;;;20.70;40.00;;;;;;481926;243;1190;-45
2021/11/13 10:02:51;;;;;;;;;;;20.70;40.10;;;;;;480217;248;1313;-45
2021/11/13 10:04:52;;;;;;;;;;;20.70;40.00;;;;;;482036;247;1189;-45
2021/11/13 10:06:53;;;;;;;;;;;20.70;39.90;;;;;;482068;247;1173;-45
2021/11/13 10:08:55;;;;;;;;;;;20.70;40.00;;;;;;480593;248;1110;-45
2021/11/13 10:10:56;;;;;;;;;;;20.70;40.00;;;;;;481880;247;1176;-45
2021/11/13 10:12:58;;;;;;;;;;;20.70;39.90;;;;;;482082;247;1173;-46
2021/11/13 10:14:59;;;;;;;;;;;20.60;40.00;;;;;;480618;248;1087;-45
2021/11/13 10:17:00;;;;;;;;;;;20.70;40.10;;;;;;482000;247;1044;-46
2021/11/13 10:19:02;;;;;;;;;;;20.70;40.00;;;;;;480301;248;2198;-45
2021/11/13 10:21:03;;;;;;;;;;;20.70;40.00;;;;;;481913;247;1672;-45
2021/11/13 10:23:04;;;;;;;;;;;20.70;40.00;;;;;;482037;247;1211;-45
2021/11/13 10:25:06;;;;;;;;;;;20.60;40.10;;;;;;480205;248;1149;-45
2021/11/13 10:27:08;;;;;;;;;;;20.70;40.10;;;;;;482005;247;1304;-46
2021/11/13 10:29:09;;;;;;;;;;;20.60;40.10;;;;;;480102;248;2016;-45
2021/11/13 10:31:10;;;;;;;;;;;20.70;40.10;;;;;;482147;247;2390;-46
2021/11/13 10:33:11;;;;;;;;;;;20.70;40.10;;;;;;482388;247;1083;-45
2021/11/13 10:35:12;;;;;;;;;;;20.70;40.00;;;;;;480255;248;1176;-45
2021/11/13 10:37:13;;;;;;;;;;;20.60;40.00;;;;;;482340;247;1202;-45
2021/11/13 10:39:15;;;;;;;;;;;20.70;40.00;;;;;;482205;247;2192;-45
2021/11/13 10:41:16;;;;;;;;;;;20.60;40.10;;;;;;480333;246;1308;-46
2021/11/13 10:43:17;;;;;;;;;;;20.70;40.10;;;;;;482348;247;1060;-45
2021/11/13 10:45:19;;;;;;;;;;;20.70;40.10;;;;;;480583;248;1026;-45
2021/11/13 10:47:20;;;;;;;;;;;20.70;40.00;;;;;;481966;247;1256;-46
2021/11/13 10:49:22;;;;;;;;;;;20.70;40.00;;;;;;480482;248;1143;-45
2021/11/13 10:51:23;;;;;;;;;;;20.70;40.00;;;;;;481908;247;1704;-45
2021/11/13 10:53:24;;;;;;;;;;;20.70;40.00;;;;;;480208;248;1059;-45
2021/11/13 10:55:25;;;;;;;;;;;20.70;40.00;;;;;;482170;247;1264;-45
2021/11/13 10:57:27;;;;;;;;;;;20.70;40.00;;;;;;480612;248;1087;-46
2021/11/13 10:59:28;;;;;;;;;;;20.70;40.00;;;;;;482325;247;2118;-45
2021/11/13 11:01:31;;;;;;;;;;;20.60;40.10;;;;;;480274;248;1168;-45
2021/11/13 11:03:31;;;;;;;;;;;20.70;40.10;;;;;;481861;247;2485;-45
2021/11/13 11:05:32;;;;;;;;;;;20.70;40.10;;;;;;480189;248;1498;-45
2021/11/13 11:07:33;;;;;;;;;;;20.70;40.00;;;;;;482291;247;1321;-45
2021/11/13 11:09:35;;;;;;;;;;;20.70;40.10;;;;;;480132;248;1137;-45
2021/11/13 11:11:36;;;;;;;;;;;20.70;40.10;;;;;;482088;247;1183;-45
2021/11/13 11:13:37;;;;;;;;;;;20.70;40.10;;;;;;480098;248;1074;-45
2021/11/13 11:15:39;;;;;;;;;;;20.70;40.00;;;;;;482101;247;1099;-45
2021/11/13 11:17:42;;;;;;;;;;;20.70;40.10;;;;;;480097;248;1123;-45
2021/11/13 11:19:42;;;;;;;;;;;20.60;40.00;;;;;;482166;247;2259;-45
2021/11/13 11:21:42;;;;;;;;;;;20.70;40.10;;;;;;480232;248;2219;-45
2021/11/13 11:23:45;;;;;;;;;;;20.70;40.10;;;;;;481955;247;1065;-45
2021/11/13 11:25:45;;;;;;;;;;;20.70;40.10;;;;;;482110;247;2083;-45
2021/11/13 11:27:46;;;;;;;;;;;20.70;40.10;;;;;;480159;248;1224;-45
2021/11/13 11:29:48;;;;;;;;;;;20.60;40.10;;;;;;482277;247;1066;-45
2021/11/13 11:31:49;;;;;;;;;;;20.70;40.10;;;;;;467772;255;1490;-45
2021/11/13 11:33:50;;;;;;;;;;;20.70;40.10;;;;;;468759;254;1030;-45
2021/11/13 11:35:52;;;;;;;;;;;20.70;40.10;;;;;;473034;251;1232;-45
2021/11/13 11:37:53;;;;;;;;;;;20.70;40.10;;;;;;480143;248;1319;-45
2021/11/13 11:39:54;;;;;;;;;;;20.70;40.10;;;;;;481926;247;2181;-46
2021/11/13 11:41:56;;;;;;;;;;;20.70;40.10;;;;;;480261;248;1146;-45
2021/11/13 11:43:57;;;;;;;;;;;20.70;40.20;;;;;;482239;247;1055;-45
2021/11/13 11:45:58;;;;;;;;;;;20.70;40.20;;;;;;480358;248;1145;-45
2021/11/13 11:48:00;;;;;;;;;;;20.70;40.20;;;;;;482039;247;1145;-45
2021/11/13 11:50:03;;;;;;;;;;;20.60;40.20;;;;;;480166;248;1142;-45
2021/11/13 11:52:03;;;;;;;;;;;20.60;40.10;;;;;;481897;247;2360;-45
2021/11/13 11:54:05;;;;;;;;;;;20.60;40.10;;;;;;480609;248;1083;-45
2021/11/13 11:56:06;;;;;;;;;;;20.60;40.20;;;;;;482153;247;1080;-46
2021/11/13 11:58:08;;;;;;;;;;;20.70;40.20;;;;;;480229;248;1223;-45